createdAt,value
2018-12-24T00:01:30.559Z,1006.75
2018-12-24T00:09:32.523Z,1006.27
2018-12-24T00:10:32.950Z,1006.23
2018-12-24T00:11:33.632Z,1006.10
2018-12-24T00:12:33.704Z,1005.01
2018-12-24T00:13:34.144Z,1004.85
2018-12-24T00:14:34.300Z,1004.80
2018-12-24T00:15:34.436Z,1004.87
2018-12-24T00:16:34.583Z,1004.97
2018-12-24T00:17:34.751Z,1004.84
2018-12-24T00:18:35.152Z,1004.88
2018-12-24T00:19:35.417Z,1004.95
2018-12-24T00:20:35.497Z,1004.92
2018-12-24T00:21:35.618Z,1005.00
2018-12-24T00:22:35.811Z,1004.94
2018-12-24T00:23:35.954Z,1005.00
2018-12-24T00:24:36.159Z,1005.04
2018-12-24T00:25:36.491Z,1005.13
2018-12-24T00:26:36.574Z,1005.21
2018-12-24T00:27:36.815Z,1005.24
2018-12-24T00:28:36.867Z,1005.25
2018-12-24T00:29:36.956Z,1005.33
2018-12-24T00:30:37.041Z,1005.35
2018-12-24T00:31:37.231Z,1005.40
2018-12-24T00:32:37.315Z,1005.40
2018-12-24T00:33:37.379Z,1005.44
2018-12-24T00:34:37.472Z,1005.45
2018-12-24T00:35:37.633Z,1005.54
2018-12-24T00:36:37.704Z,1005.45
2018-12-24T00:37:38.035Z,1005.45
2018-12-24T00:38:38.159Z,1005.40
2018-12-24T00:39:38.433Z,1005.47
2018-12-24T00:40:38.565Z,1005.54
2018-12-24T00:41:38.688Z,1005.47
2018-12-24T00:42:39.280Z,1005.55
2018-12-24T00:43:39.492Z,1005.63
2018-12-24T00:44:39.456Z,1005.66
2018-12-24T00:45:39.736Z,1005.71
2018-12-24T00:46:40.119Z,1005.70
2018-12-24T00:47:40.404Z,1005.73
2018-12-24T00:48:40.155Z,1005.77
2018-12-24T00:49:43.277Z,1005.76
2018-12-24T00:50:40.897Z,1005.83
2018-12-24T00:51:41.385Z,1006.04
2018-12-24T00:52:41.707Z,1006.02
2018-12-24T00:53:42.060Z,1006.16
2018-12-24T00:54:42.409Z,1006.14
2018-12-24T00:55:42.999Z,1006.16
2018-12-24T00:56:42.917Z,1006.11
2018-12-24T00:57:43.270Z,1006.11
2018-12-24T00:58:43.560Z,1006.08
2018-12-24T00:59:44.149Z,1006.15
2018-12-24T01:00:44.408Z,1006.24
2018-12-24T01:01:44.666Z,1006.24
2018-12-24T01:02:44.960Z,1006.26
2018-12-24T01:03:45.569Z,1006.34
2018-12-24T01:04:45.619Z,1006.26
2018-12-24T01:05:46.189Z,1006.30
2018-12-24T01:06:45.971Z,1006.28
2018-12-24T01:07:46.232Z,1006.39
2018-12-24T01:08:46.763Z,1006.35
2018-12-24T01:09:46.634Z,1006.22
2018-12-24T01:10:46.883Z,1006.43
2018-12-24T01:11:47.130Z,1006.43
2018-12-24T01:12:47.385Z,1006.47
2018-12-24T01:13:47.442Z,1006.44
2018-12-24T01:14:47.974Z,1006.47
2018-12-24T01:15:48.616Z,1006.57
2018-12-24T01:16:49.013Z,1006.63
2018-12-24T01:17:49.129Z,1006.66
2018-12-24T01:18:49.316Z,1006.70
2018-12-24T01:19:49.499Z,1006.77
2018-12-24T01:20:49.516Z,1006.84
2018-12-24T01:21:49.521Z,1006.81
2018-12-24T01:22:49.705Z,1006.81
2018-12-24T01:23:49.776Z,1006.82
2018-12-24T01:24:50.024Z,1006.88
2018-12-24T01:25:50.128Z,1007.02
2018-12-24T01:26:50.580Z,1006.99
2018-12-24T01:27:50.688Z,1007.04
2018-12-24T01:28:50.891Z,1006.99
2018-12-24T01:29:51.005Z,1007.01
2018-12-24T01:30:51.111Z,1007.07
2018-12-24T01:31:51.220Z,1007.03
2018-12-24T01:32:51.211Z,1007.05
2018-12-24T01:33:51.359Z,1007.08
2018-12-24T01:34:51.448Z,1007.04
2018-12-24T01:35:51.535Z,1007.06
2018-12-24T01:36:51.596Z,1007.15
2018-12-24T01:37:51.432Z,1007.14
2018-12-24T01:38:52.063Z,1007.20
2018-12-24T01:39:52.136Z,1007.23
2018-12-24T01:40:52.263Z,1007.26
2018-12-24T01:41:52.380Z,1007.31
2018-12-24T01:42:52.422Z,1007.32
2018-12-24T01:43:52.479Z,1007.33
2018-12-24T01:44:52.597Z,1007.34
2018-12-24T01:45:52.760Z,1007.36
2018-12-24T01:46:52.827Z,1007.44
2018-12-24T01:47:52.876Z,1007.50
2018-12-24T01:48:52.924Z,1007.46
2018-12-24T01:50:53.483Z,1007.50
2018-12-24T01:51:53.567Z,1007.48
2018-12-24T01:52:53.671Z,1007.53
2018-12-24T01:53:53.728Z,1007.52
2018-12-24T01:54:53.807Z,1007.51
2018-12-24T01:55:54.129Z,1007.49
2018-12-24T01:56:54.396Z,1007.53
2018-12-24T01:57:54.876Z,1007.49
2018-12-24T01:58:55.114Z,1007.56
2018-12-24T01:59:55.262Z,1007.53
2018-12-24T02:00:55.495Z,1007.52
2018-12-24T02:01:55.775Z,1007.61
2018-12-24T02:02:55.990Z,1007.58
2018-12-24T02:03:56.381Z,1007.56
2018-12-24T02:04:56.639Z,1007.68
2018-12-24T02:05:57.173Z,1007.66
2018-12-24T02:06:57.045Z,1007.66
2018-12-24T02:07:57.194Z,1007.79
2018-12-24T02:08:57.603Z,1007.78
2018-12-24T02:09:57.758Z,1007.76
2018-12-24T02:10:58.077Z,1007.83
2018-12-24T02:11:58.369Z,1007.89
2018-12-24T02:12:58.783Z,1007.86
2018-12-24T02:13:59.046Z,1007.99
2018-12-24T02:14:59.416Z,1007.90
2018-12-24T02:15:59.737Z,1007.88
2018-12-24T02:16:59.686Z,1007.94
2018-12-24T02:18:00.091Z,1007.99
2018-12-24T02:19:00.322Z,1007.80
2018-12-24T02:20:00.714Z,1007.85
2018-12-24T02:21:01.061Z,1007.95
2018-12-24T02:22:00.946Z,1007.99
2018-12-24T02:23:01.454Z,1008.12
2018-12-24T02:24:02.005Z,1008.06
2018-12-24T02:25:02.077Z,1008.03
2018-12-24T02:26:02.343Z,1008.00
2018-12-24T02:27:02.598Z,1008.08
2018-12-24T02:28:02.930Z,1008.08
2018-12-24T02:29:03.579Z,1008.17
2018-12-24T02:30:03.893Z,1008.15
2018-12-24T02:31:03.878Z,1008.16
2018-12-24T02:32:03.905Z,1008.19
2018-12-24T02:33:04.051Z,1008.26
2018-12-24T02:34:04.078Z,1008.20
2018-12-24T02:35:04.183Z,1008.22
2018-12-24T02:36:04.287Z,1008.07
2018-12-24T02:37:04.420Z,1008.05
2018-12-24T02:38:04.529Z,1008.08
2018-12-24T02:39:04.741Z,1008.20
2018-12-24T02:40:04.837Z,1008.11
2018-12-24T02:41:04.971Z,1008.11
2018-12-24T02:42:05.108Z,1008.11
2018-12-24T02:43:05.291Z,1008.18
2018-12-24T02:44:05.342Z,1008.08
2018-12-24T02:45:05.455Z,1008.12
2018-12-24T02:46:05.608Z,1008.04
2018-12-24T02:47:05.757Z,1008.08
2018-12-24T02:48:05.840Z,1008.06
2018-12-24T02:49:06.288Z,1008.12
2018-12-24T02:50:09.536Z,1008.07
2018-12-24T02:51:06.758Z,1008.08
2018-12-24T02:52:06.964Z,1008.07
2018-12-24T02:53:07.048Z,1007.98
2018-12-24T02:54:07.177Z,1008.07
2018-12-24T02:55:07.207Z,1008.03
2018-12-24T02:56:07.385Z,1008.11
2018-12-24T02:57:07.608Z,1008.10
2018-12-24T02:58:07.690Z,1008.08
2018-12-24T02:59:07.674Z,1008.14
2018-12-24T03:00:07.765Z,1008.07
2018-12-24T03:01:07.792Z,1008.08
2018-12-24T03:02:08.127Z,1008.18
2018-12-24T03:03:07.914Z,1008.24
2018-12-24T03:04:08.570Z,1008.32
2018-12-24T03:05:08.883Z,1008.28
2018-12-24T03:06:09.049Z,1008.33
2018-12-24T03:07:09.042Z,1008.35
2018-12-24T03:08:09.344Z,1008.30
2018-12-24T03:09:09.562Z,1008.29
2018-12-24T03:10:09.717Z,1008.26
2018-12-24T03:11:10.061Z,1008.12
2018-12-24T03:12:10.402Z,1008.05
2018-12-24T03:13:10.762Z,1008.08
2018-12-24T03:14:11.013Z,1008.09
2018-12-24T03:15:11.492Z,1008.00
2018-12-24T03:16:11.761Z,1008.11
2018-12-24T03:17:12.024Z,1008.12
2018-12-24T03:18:12.141Z,1008.11
2018-12-24T03:19:12.383Z,1008.15
2018-12-24T03:20:12.627Z,1008.08
2018-12-24T03:21:12.994Z,1008.22
2018-12-24T03:22:13.337Z,1008.25
2018-12-24T03:23:13.588Z,1008.24
2018-12-24T03:24:13.868Z,1008.29
2018-12-24T03:25:14.295Z,1008.21
2018-12-24T03:26:14.572Z,1008.23
2018-12-24T03:27:14.741Z,1008.20
2018-12-24T03:28:15.283Z,1008.35
2018-12-24T03:29:15.034Z,1008.31
2018-12-24T03:30:18.041Z,1008.40
2018-12-24T03:31:15.839Z,1008.39
2018-12-24T03:32:16.218Z,1008.43
2018-12-24T03:33:16.549Z,1008.45
2018-12-24T03:34:16.657Z,1008.56
2018-12-24T03:35:16.928Z,1008.42
2018-12-24T03:36:17.633Z,1008.64
2018-12-24T03:37:17.677Z,1008.63
2018-12-24T03:38:17.450Z,1008.75
2018-12-24T03:39:17.730Z,1008.83
2018-12-24T03:40:18.087Z,1008.70
2018-12-24T03:41:18.292Z,1008.72
2018-12-24T03:42:18.819Z,1008.72
2018-12-24T03:43:19.328Z,1008.77
2018-12-24T03:44:19.501Z,1008.79
2018-12-24T03:45:19.839Z,1008.84
2018-12-24T03:46:19.951Z,1008.81
2018-12-24T03:47:20.042Z,1008.88
2018-12-24T03:48:20.182Z,1008.89
2018-12-24T03:49:20.317Z,1008.92
2018-12-24T03:50:20.453Z,1008.94
2018-12-24T03:51:20.574Z,1008.88
2018-12-24T03:52:20.699Z,1008.96
2018-12-24T03:53:20.777Z,1008.98
2018-12-24T03:54:20.893Z,1008.83
2018-12-24T03:55:21.011Z,1008.92
2018-12-24T03:56:21.062Z,1008.97
2018-12-24T03:57:21.120Z,1009.02
2018-12-24T03:58:21.178Z,1009.02
2018-12-24T03:59:21.243Z,1009.02
2018-12-24T04:00:21.654Z,1009.06
2018-12-24T04:01:21.786Z,1009.09
2018-12-24T04:02:22.235Z,1009.15
2018-12-24T04:03:22.294Z,1009.05
2018-12-24T04:04:22.342Z,1009.07
2018-12-24T04:05:22.678Z,1009.14
2018-12-24T04:06:22.753Z,1009.23
2018-12-24T04:07:22.800Z,1009.20
2018-12-24T04:08:22.872Z,1009.16
2018-12-24T04:09:23.020Z,1009.17
2018-12-24T04:10:23.074Z,1009.18
2018-12-24T04:11:24.254Z,1009.26
2018-12-24T04:12:23.215Z,1009.22
2018-12-24T04:13:23.271Z,1009.26
2018-12-24T04:14:23.319Z,1009.22
2018-12-24T04:15:25.813Z,1009.21
2018-12-24T04:16:23.603Z,1009.31
2018-12-24T04:17:24.330Z,1009.34
2018-12-24T04:18:24.420Z,1009.34
2018-12-24T04:19:24.486Z,1009.37
2018-12-24T04:20:24.591Z,1009.45
2018-12-24T04:21:24.670Z,1009.44
2018-12-24T04:22:24.723Z,1009.45
2018-12-24T04:23:25.026Z,1009.44
2018-12-24T04:24:25.259Z,1009.48
2018-12-24T04:25:25.549Z,1009.51
2018-12-24T04:26:25.757Z,1009.68
2018-12-24T04:27:26.303Z,1009.64
2018-12-24T04:28:26.580Z,1009.66
2018-12-24T04:29:26.861Z,1009.67
2018-12-24T04:30:27.138Z,1009.68
2018-12-24T04:31:27.380Z,1009.80
2018-12-24T04:32:27.636Z,1009.86
2018-12-24T04:33:28.016Z,1009.92
2018-12-24T04:34:28.269Z,1009.86
2018-12-24T04:35:28.511Z,1009.86
2018-12-24T04:36:28.882Z,1009.91
2018-12-24T04:37:29.386Z,1010.01
2018-12-24T04:38:29.329Z,1009.90
2018-12-24T04:39:29.393Z,1009.86
2018-12-24T04:40:29.691Z,1010.07
2018-12-24T04:41:29.839Z,1009.99
2018-12-24T04:43:32.414Z,1010.04
2018-12-24T04:44:30.806Z,1009.99
2018-12-24T04:45:31.057Z,1010.05
2018-12-24T04:46:31.375Z,1010.09
2018-12-24T04:47:31.654Z,1010.11
2018-12-24T04:48:31.878Z,1010.18
2018-12-24T04:49:31.980Z,1010.21
2018-12-24T04:50:32.357Z,1010.25
2018-12-24T04:51:32.766Z,1010.12
2018-12-24T04:52:33.158Z,1010.24
2018-12-24T04:53:33.684Z,1010.32
2018-12-24T04:54:33.771Z,1010.36
2018-12-24T04:55:33.883Z,1010.31
2018-12-24T04:56:34.039Z,1010.32
2018-12-24T04:57:34.152Z,1010.45
2018-12-24T04:58:34.276Z,1010.38
2018-12-24T04:59:34.646Z,1010.55
2018-12-24T05:00:34.780Z,1010.50
2018-12-24T05:01:35.261Z,1010.52
2018-12-24T05:02:35.391Z,1010.59
2018-12-24T05:03:35.809Z,1010.57
2018-12-24T05:04:35.900Z,1010.59
2018-12-24T05:05:35.991Z,1010.67
2018-12-24T05:06:36.106Z,1010.68
2018-12-24T05:07:36.522Z,1010.74
2018-12-24T05:08:36.538Z,1010.70
2018-12-24T05:09:36.642Z,1010.78
2018-12-24T05:10:36.740Z,1010.73
2018-12-24T05:11:36.870Z,1010.80
2018-12-24T05:12:36.960Z,1010.78
2018-12-24T05:13:40.935Z,1010.72
2018-12-24T05:14:37.163Z,1010.81
2018-12-24T05:15:37.243Z,1010.76
2018-12-24T05:16:37.551Z,1010.64
2018-12-24T05:17:37.915Z,1010.78
2018-12-24T05:18:37.996Z,1010.92
2018-12-24T05:19:38.413Z,1010.91
2018-12-24T05:20:38.511Z,1010.91
2018-12-24T05:21:38.564Z,1010.98
2018-12-24T05:22:38.642Z,1011.04
2018-12-24T05:23:38.874Z,1010.92
2018-12-24T05:24:39.500Z,1010.97
2018-12-24T05:25:39.542Z,1011.03
2018-12-24T05:26:39.692Z,1011.05
2018-12-24T05:27:39.772Z,1011.02
2018-12-24T05:28:39.727Z,1011.14
2018-12-24T05:29:40.003Z,1011.13
2018-12-24T05:30:40.362Z,1011.19
2018-12-24T05:32:40.660Z,1011.18
2018-12-24T05:33:41.010Z,1011.17
2018-12-24T05:34:41.504Z,1011.30
2018-12-24T05:35:41.755Z,1011.29
2018-12-24T05:36:42.091Z,1011.28
2018-12-24T05:37:42.427Z,1011.32
2018-12-24T05:38:42.550Z,1011.35
2018-12-24T05:39:43.104Z,1011.43
2018-12-24T05:40:42.865Z,1011.45
2018-12-24T05:41:43.147Z,1011.47
2018-12-24T05:42:43.627Z,1011.37
2018-12-24T05:43:49.449Z,1011.63
2018-12-24T05:44:44.442Z,1011.64
2018-12-24T05:45:44.755Z,1011.66
2018-12-24T05:46:44.831Z,1011.72
2018-12-24T05:47:45.175Z,1011.76
2018-12-24T05:48:45.504Z,1011.79
2018-12-24T05:49:45.262Z,1011.78
2018-12-24T05:50:45.499Z,1011.81
2018-12-24T05:51:45.748Z,1011.80
2018-12-24T05:52:46.009Z,1011.91
2018-12-24T05:53:46.291Z,1011.99
2018-12-24T05:54:46.570Z,1012.05
2018-12-24T05:55:46.856Z,1012.04
2018-12-24T05:56:47.114Z,1012.07
2018-12-24T05:57:47.371Z,1012.07
2018-12-24T05:58:47.955Z,1012.13
2018-12-24T05:59:48.283Z,1012.01
2018-12-24T06:00:48.648Z,1012.10
2018-12-24T06:01:48.754Z,1012.04
2018-12-24T06:02:48.796Z,1012.19
2018-12-24T06:03:48.927Z,1012.07
2018-12-24T06:04:48.961Z,1012.25
2018-12-24T06:06:49.081Z,1012.29
2018-12-24T06:07:49.200Z,1012.31
2018-12-24T06:08:49.348Z,1012.37
2018-12-24T06:09:49.742Z,1012.33
2018-12-24T06:12:49.961Z,1012.39
2018-12-24T06:13:57.779Z,1012.55
2018-12-24T06:14:50.271Z,1012.49
2018-12-24T06:15:50.426Z,1012.59
2018-12-24T06:16:50.557Z,1012.52
2018-12-24T06:17:50.661Z,1012.61
2018-12-24T06:18:50.816Z,1012.56
2018-12-24T06:19:50.930Z,1012.61
2018-12-24T06:20:51.030Z,1012.65
2018-12-24T06:21:51.152Z,1012.75
2018-12-24T06:22:51.182Z,1012.93
2018-12-24T06:23:51.490Z,1012.84
2018-12-24T06:24:51.571Z,1012.87
2018-12-24T06:25:51.615Z,1012.87
2018-12-24T06:26:51.736Z,1012.93
2018-12-24T06:27:51.883Z,1012.92
2018-12-24T06:28:52.006Z,1013.01
2018-12-24T06:29:52.097Z,1012.95
2018-12-24T06:30:52.522Z,1013.03
2018-12-24T06:31:52.575Z,1013.03
2018-12-24T06:32:52.626Z,1013.09
2018-12-24T06:33:52.747Z,1013.09
2018-12-24T06:34:52.845Z,1013.13
2018-12-24T06:35:52.894Z,1013.21
2018-12-24T06:36:52.973Z,1013.30
2018-12-24T06:37:52.983Z,1013.35
2018-12-24T06:38:53.332Z,1013.45
2018-12-24T06:39:53.654Z,1013.43
2018-12-24T06:40:54.109Z,1013.42
2018-12-24T06:41:54.202Z,1013.47
2018-12-24T06:42:54.210Z,1013.53
2018-12-24T06:43:54.465Z,1013.65
2018-12-24T06:44:54.719Z,1013.58
2018-12-24T06:45:55.014Z,1013.69
2018-12-24T06:46:55.257Z,1013.74
2018-12-24T06:47:55.544Z,1013.75
2018-12-24T06:48:55.869Z,1013.80
2018-12-24T06:49:55.598Z,1013.79
2018-12-24T06:51:55.972Z,1013.84
2018-12-24T06:52:56.264Z,1013.95
2018-12-24T06:53:56.021Z,1013.89
2018-12-24T06:54:56.281Z,1013.97
2018-12-24T06:55:56.612Z,1013.99
2018-12-24T06:56:57.101Z,1014.00
2018-12-24T06:57:56.929Z,1014.02
2018-12-24T06:58:57.483Z,1014.08
2018-12-24T06:59:57.300Z,1013.94
2018-12-24T07:00:57.641Z,1014.07
2018-12-24T07:01:57.929Z,1014.08
2018-12-24T07:02:58.183Z,1014.15
2018-12-24T07:03:58.441Z,1014.18
2018-12-24T07:04:58.709Z,1014.27
2018-12-24T07:05:58.961Z,1014.20
2018-12-24T07:06:59.122Z,1014.27
2018-12-24T07:07:59.355Z,1014.27
2018-12-24T07:08:59.830Z,1014.31
2018-12-24T07:10:00.076Z,1014.35
2018-12-24T07:11:00.629Z,1014.32
2018-12-24T07:12:00.832Z,1014.38
2018-12-24T07:13:01.407Z,1014.34
2018-12-24T07:14:01.428Z,1014.46
2018-12-24T07:15:01.414Z,1014.45
2018-12-24T07:16:01.531Z,1014.46
2018-12-24T07:17:01.567Z,1014.44
2018-12-24T07:18:01.446Z,1014.52
2018-12-24T07:19:02.011Z,1014.55
2018-12-24T07:20:02.126Z,1014.61
2018-12-24T07:21:02.184Z,1014.62
2018-12-24T07:22:02.266Z,1014.66
2018-12-24T07:23:02.178Z,1014.62
2018-12-24T07:24:02.730Z,1014.69
2018-12-24T07:25:02.791Z,1014.72
2018-12-24T07:26:02.842Z,1014.68
2018-12-24T07:27:02.932Z,1014.75
2018-12-24T07:28:02.946Z,1014.84
2018-12-24T07:29:03.018Z,1014.80
2018-12-24T07:30:03.154Z,1014.90
2018-12-24T07:31:03.269Z,1014.87
2018-12-24T07:32:03.377Z,1014.95
2018-12-24T07:33:03.484Z,1014.98
2018-12-24T07:34:03.600Z,1014.98
2018-12-24T07:35:03.711Z,1014.96
2018-12-24T07:36:03.781Z,1015.03
2018-12-24T07:37:04.104Z,1015.00
2018-12-24T07:38:04.238Z,1015.00
2018-12-24T07:39:04.233Z,1015.04
2018-12-24T07:40:04.464Z,1015.14
2018-12-24T07:41:04.814Z,1015.17
2018-12-24T07:42:04.928Z,1015.17
2018-12-24T07:43:05.080Z,1015.17
2018-12-24T07:44:05.188Z,1015.17
2018-12-24T07:45:05.338Z,1015.19
2018-12-24T07:46:05.405Z,1015.11
2018-12-24T07:47:05.440Z,1015.21
2018-12-24T07:48:05.777Z,1015.20
2018-12-24T07:49:06.143Z,1015.27
2018-12-24T07:50:06.294Z,1015.28
2018-12-24T07:51:06.413Z,1015.33
2018-12-24T07:52:06.757Z,1015.26
2018-12-24T07:53:06.795Z,1015.34
2018-12-24T07:54:06.946Z,1015.32
2018-12-24T07:55:07.125Z,1015.42
2018-12-24T07:56:07.210Z,1015.35
2018-12-24T07:57:07.296Z,1015.40
2018-12-24T07:58:07.187Z,1015.39
2018-12-24T07:59:07.698Z,1015.43
2018-12-24T08:00:07.739Z,1015.46
2018-12-24T08:01:07.782Z,1015.46
2018-12-24T08:02:07.824Z,1015.41
2018-12-24T08:03:07.935Z,1015.45
2018-12-24T08:04:07.993Z,1015.53
2018-12-24T08:05:07.982Z,1015.52
2018-12-24T08:06:08.554Z,1015.47
2018-12-24T08:07:08.827Z,1015.57
2018-12-24T08:08:08.906Z,1015.63
2018-12-24T08:09:09.083Z,1015.59
2018-12-24T08:10:09.161Z,1015.60
2018-12-24T08:11:09.012Z,1015.57
2018-12-24T08:12:09.653Z,1015.63
2018-12-24T08:13:09.807Z,1015.61
2018-12-24T08:14:09.666Z,1015.62
2018-12-24T08:15:09.996Z,1015.51
2018-12-24T08:16:10.537Z,1015.52
2018-12-24T08:17:10.395Z,1015.64
2018-12-24T08:18:10.663Z,1015.68
2018-12-24T08:19:10.745Z,1015.66
2018-12-24T08:20:11.195Z,1015.66
2018-12-24T08:21:11.443Z,1015.67
2018-12-24T08:22:11.696Z,1015.65
2018-12-24T08:23:11.990Z,1015.65
2018-12-24T08:24:12.365Z,1015.68
2018-12-24T08:25:12.934Z,1015.71
2018-12-24T08:26:12.696Z,1015.71
2018-12-24T08:27:12.898Z,1015.71
2018-12-24T08:28:13.266Z,1015.70
2018-12-24T08:30:13.556Z,1015.77
2018-12-24T08:31:14.200Z,1015.77
2018-12-24T08:32:14.487Z,1015.77
2018-12-24T08:33:14.726Z,1015.80
2018-12-24T08:34:15.121Z,1015.81
2018-12-24T08:35:15.699Z,1015.83
2018-12-24T08:36:15.481Z,1015.86
2018-12-24T08:37:15.670Z,1015.87
2018-12-24T08:38:15.939Z,1015.92
2018-12-24T08:39:16.511Z,1015.94
2018-12-24T08:40:16.922Z,1015.97
2018-12-24T08:41:17.289Z,1015.99
2018-12-24T08:42:17.756Z,1015.99
2018-12-24T08:43:18.353Z,1016.01
2018-12-24T08:44:18.709Z,1016.03
2018-12-24T08:45:18.781Z,1016.05
2018-12-24T08:46:18.914Z,1016.08
2018-12-24T08:48:19.030Z,1016.12
2018-12-24T08:49:19.132Z,1016.14
2018-12-24T08:50:19.242Z,1016.15
2018-12-24T08:51:19.344Z,1016.26
2018-12-24T08:52:19.460Z,1016.26
2018-12-24T08:53:19.563Z,1016.26
2018-12-24T08:54:19.672Z,1016.28
2018-12-24T08:55:19.796Z,1016.29
2018-12-24T08:56:22.612Z,1016.31
2018-12-24T08:57:20.271Z,1016.33
2018-12-24T08:58:20.427Z,1016.36
2018-12-24T08:59:20.582Z,1016.37
2018-12-24T09:00:20.673Z,1016.39
2018-12-24T09:01:20.780Z,1016.40
2018-12-24T09:02:20.830Z,1016.43
2018-12-24T09:03:20.855Z,1016.45
2018-12-24T09:04:20.962Z,1016.49
2018-12-24T09:05:21.062Z,1016.53
2018-12-24T09:06:21.094Z,1016.55
2018-12-24T09:07:21.154Z,1016.59
2018-12-24T09:08:21.194Z,1016.59
2018-12-24T09:09:21.286Z,1016.60
2018-12-24T09:10:21.405Z,1016.63
2018-12-24T09:11:21.487Z,1016.66
2018-12-24T09:12:21.557Z,1016.66
2018-12-24T09:13:21.633Z,1016.68
2018-12-24T09:14:21.696Z,1016.70
2018-12-24T09:15:22.148Z,1016.72
2018-12-24T09:16:22.225Z,1016.76
2018-12-24T09:17:22.294Z,1016.78
2018-12-24T09:18:22.370Z,1016.81
2018-12-24T09:19:22.728Z,1016.81
2018-12-24T09:20:22.793Z,1016.84
2018-12-24T09:21:23.204Z,1016.86
2018-12-24T09:22:23.274Z,1016.86
2018-12-24T09:23:23.352Z,1016.86
2018-12-24T09:24:23.452Z,1016.87
2018-12-24T09:25:23.549Z,1016.89
2018-12-24T09:26:23.601Z,1016.92
2018-12-24T09:27:23.661Z,1016.92
2018-12-24T09:28:23.720Z,1016.94
2018-12-24T09:29:23.776Z,1017.02
2018-12-24T09:30:23.884Z,1017.02
2018-12-24T09:31:23.867Z,1017.04
2018-12-24T09:32:24.485Z,1017.04
2018-12-24T09:33:24.635Z,1017.05
2018-12-24T09:34:24.788Z,1017.15
2018-12-24T09:35:25.216Z,1017.10
2018-12-24T09:36:24.569Z,1017.11
2018-12-24T09:37:25.036Z,1017.11
2018-12-24T09:38:25.548Z,1017.14
2018-12-24T09:39:25.479Z,1017.14
2018-12-24T09:40:25.843Z,1017.13
2018-12-24T09:41:26.162Z,1017.13
2018-12-24T09:42:26.592Z,1017.14
2018-12-24T09:43:27.013Z,1017.14
2018-12-24T09:44:27.259Z,1017.15
2018-12-24T09:45:27.645Z,1017.15
2018-12-24T09:46:27.723Z,1017.17
2018-12-24T09:47:27.761Z,1017.18
2018-12-24T09:48:28.103Z,1017.18
2018-12-24T09:49:28.349Z,1017.20
2018-12-24T09:50:28.683Z,1017.27
2018-12-24T09:51:28.949Z,1017.26
2018-12-24T09:52:29.198Z,1017.26
2018-12-24T09:53:29.668Z,1017.29
2018-12-24T09:54:29.901Z,1017.31
2018-12-24T09:55:30.161Z,1017.31
2018-12-24T09:56:30.443Z,1017.33
2018-12-24T09:57:30.891Z,1017.35
2018-12-24T09:58:31.369Z,1017.38
2018-12-24T09:59:31.889Z,1017.40
2018-12-24T10:00:31.657Z,1017.46
2018-12-24T10:01:31.949Z,1017.45
2018-12-24T10:02:32.224Z,1017.44
2018-12-24T10:03:32.601Z,1017.43
2018-12-24T10:05:32.475Z,1017.43
2018-12-24T10:06:32.536Z,1017.45
2018-12-24T10:07:32.849Z,1017.43
2018-12-24T10:08:33.117Z,1017.41
2018-12-24T10:09:33.795Z,1017.41
2018-12-24T10:10:33.922Z,1017.41
2018-12-24T10:11:34.015Z,1017.43
2018-12-24T10:12:34.167Z,1017.43
2018-12-24T10:13:34.240Z,1017.44
2018-12-24T10:14:34.352Z,1017.45
2018-12-24T10:15:34.477Z,1017.45
2018-12-24T10:16:34.892Z,1017.46
2018-12-24T10:17:35.053Z,1017.48
2018-12-24T10:18:35.514Z,1017.49
2018-12-24T10:19:35.811Z,1017.51
2018-12-24T10:20:36.213Z,1017.52
2018-12-24T10:21:36.575Z,1017.55
2018-12-24T10:22:36.367Z,1017.56
2018-12-24T10:23:36.967Z,1017.58
2018-12-24T10:24:37.086Z,1017.57
2018-12-24T10:25:37.401Z,1017.56
2018-12-24T10:26:37.462Z,1017.58
2018-12-24T10:27:37.576Z,1017.59
2018-12-24T10:28:37.706Z,1017.60
2018-12-24T10:29:37.808Z,1017.60
2018-12-24T10:30:37.883Z,1017.60
2018-12-24T10:31:37.924Z,1017.61
2018-12-24T10:32:37.965Z,1017.62
2018-12-24T10:33:38.002Z,1017.73
2018-12-24T10:34:38.049Z,1017.72
2018-12-24T10:35:39.665Z,1017.73
2018-12-24T10:36:38.152Z,1017.72
2018-12-24T10:37:38.238Z,1017.72
2018-12-24T10:38:38.119Z,1017.72
2018-12-24T10:39:38.705Z,1017.74
2018-12-24T10:40:38.755Z,1017.79
2018-12-24T10:41:39.063Z,1017.79
2018-12-24T10:42:38.986Z,1017.78
2018-12-24T10:43:39.245Z,1017.76
2018-12-24T10:44:39.524Z,1017.76
2018-12-24T10:45:40.064Z,1017.75
2018-12-24T10:46:40.123Z,1017.77
2018-12-24T10:47:40.469Z,1017.77
2018-12-24T10:48:40.786Z,1017.77
2018-12-24T10:49:40.935Z,1017.79
2018-12-24T10:50:40.989Z,1017.79
2018-12-24T10:51:41.111Z,1017.77
2018-12-24T10:52:41.368Z,1017.78
2018-12-24T10:53:41.644Z,1017.80
2018-12-24T10:54:41.955Z,1017.80
2018-12-24T10:55:42.274Z,1017.78
2018-12-24T10:56:42.515Z,1017.78
2018-12-24T10:57:42.929Z,1017.79
2018-12-24T10:58:43.220Z,1017.79
2018-12-24T10:59:43.813Z,1017.77
2018-12-24T11:00:43.838Z,1017.79
2018-12-24T11:01:44.796Z,1017.78
2018-12-24T11:02:44.414Z,1017.75
2018-12-24T11:03:44.680Z,1017.75
2018-12-24T11:04:45.148Z,1017.75
2018-12-24T11:05:45.386Z,1017.76
2018-12-24T11:06:45.658Z,1017.75
2018-12-24T11:07:45.952Z,1017.76
2018-12-24T11:08:46.437Z,1017.78
2018-12-24T11:09:46.735Z,1017.79
2018-12-24T11:10:46.838Z,1017.80
2018-12-24T11:11:47.044Z,1017.82
2018-12-24T11:12:47.396Z,1017.83
2018-12-24T11:13:47.751Z,1017.91
2018-12-24T11:14:48.399Z,1017.90
2018-12-24T11:15:48.929Z,1017.89
2018-12-24T11:16:49.451Z,1017.88
2018-12-24T11:17:49.443Z,1017.80
2018-12-24T11:18:49.531Z,1017.82
2018-12-24T11:19:49.644Z,1017.83
2018-12-24T11:20:49.729Z,1017.83
2018-12-24T11:21:50.930Z,1017.83
2018-12-24T11:22:50.528Z,1017.82
2018-12-24T11:23:51.809Z,1017.82
2018-12-24T11:24:50.708Z,1017.73
2018-12-24T11:25:50.868Z,1017.74
2018-12-24T11:26:51.186Z,1017.72
2018-12-24T11:27:51.210Z,1017.70
2018-12-24T11:28:51.253Z,1017.71
2018-12-24T11:29:51.359Z,1017.70
2018-12-24T11:30:51.386Z,1017.67
2018-12-24T11:31:51.413Z,1017.69
2018-12-24T11:32:51.482Z,1017.68
2018-12-24T11:33:51.545Z,1017.69
2018-12-24T11:34:51.617Z,1017.85
2018-12-24T11:35:51.992Z,1017.80
2018-12-24T11:36:52.064Z,1017.81
2018-12-24T11:37:52.363Z,1017.81
2018-12-24T11:38:52.409Z,1017.81
2018-12-24T11:39:52.496Z,1017.78
2018-12-24T11:40:52.598Z,1017.77
2018-12-24T11:41:52.657Z,1017.76
2018-12-24T11:42:52.702Z,1017.75
2018-12-24T11:43:52.751Z,1017.74
2018-12-24T11:45:53.030Z,1017.72
2018-12-24T11:46:53.002Z,1017.73
2018-12-24T11:47:53.080Z,1017.73
2018-12-24T11:48:53.386Z,1017.73
2018-12-24T11:49:54.031Z,1017.73
2018-12-24T11:50:54.003Z,1017.65
2018-12-24T11:52:54.612Z,1017.66
2018-12-24T11:53:54.440Z,1017.68
2018-12-24T11:55:54.738Z,1017.67
2018-12-24T11:56:54.998Z,1017.69
2018-12-24T11:57:55.775Z,1017.73
2018-12-24T11:58:55.510Z,1017.83
2018-12-24T11:59:55.933Z,1017.78
2018-12-24T12:00:56.171Z,1017.80
2018-12-24T12:01:56.484Z,1017.80
2018-12-24T12:02:56.973Z,1017.80
2018-12-24T12:03:57.247Z,1017.79
2018-12-24T12:04:57.793Z,1017.79
2018-12-24T12:05:58.327Z,1017.72
2018-12-24T12:06:58.770Z,1017.78
2018-12-24T12:07:58.777Z,1017.77
2018-12-24T12:08:59.096Z,1017.77
2018-12-24T12:09:59.314Z,1017.79
2018-12-24T12:11:01.589Z,1017.79
2018-12-24T12:11:59.880Z,1017.80
2018-12-24T12:13:00.476Z,1017.81
2018-12-24T12:14:00.308Z,1017.82
2018-12-24T12:15:00.807Z,1017.82
2018-12-24T12:16:00.757Z,1017.83
2018-12-24T12:17:01.132Z,1017.84
2018-12-24T12:18:01.446Z,1017.83
2018-12-24T12:19:01.471Z,1017.83
2018-12-24T12:20:01.981Z,1017.82
2018-12-24T12:21:02.243Z,1017.84
2018-12-24T12:22:02.342Z,1017.86
2018-12-24T12:23:02.286Z,1017.87
2018-12-24T12:24:02.831Z,1017.87
2018-12-24T12:25:02.917Z,1017.91
2018-12-24T12:26:03.009Z,1017.91
2018-12-24T12:27:03.113Z,1017.91
2018-12-24T12:28:03.215Z,1017.91
2018-12-24T12:29:03.343Z,1017.93